createdAt,value
2017-03-28T00:00:35.485Z,8.60
2017-03-28T00:01:34.634Z,9.32
2017-03-28T00:02:33.835Z,7.98
2017-03-28T00:03:34.076Z,7.50
2017-03-28T00:04:33.564Z,8.08
2017-03-28T00:05:32.712Z,7.73
2017-03-28T00:06:31.909Z,8.55
2017-03-28T00:07:31.050Z,7.65
2017-03-28T00:08:30.482Z,8.42
2017-03-28T00:09:29.827Z,8.23
2017-03-28T00:10:29.499Z,8.27
2017-03-28T00:11:28.780Z,7.88
2017-03-28T00:12:28.909Z,8.72
2017-03-28T00:13:28.240Z,8.87
2017-03-28T00:14:27.376Z,8.68
2017-03-28T00:15:26.707Z,8.73
2017-03-28T00:16:26.380Z,8.27
2017-03-28T00:17:25.693Z,8.83
2017-03-28T00:18:24.863Z,8.75
2017-03-28T00:19:24.028Z,7.98
2017-03-28T00:20:23.552Z,10.00
2017-03-28T00:21:22.908Z,9.17
2017-03-28T00:22:23.282Z,8.82
2017-03-28T00:23:22.430Z,8.42
2017-03-28T00:24:21.721Z,8.10
2017-03-28T00:25:20.944Z,9.05
2017-03-28T00:26:20.123Z,9.40
2017-03-28T00:27:19.350Z,8.97
2017-03-28T00:28:19.140Z,9.10
2017-03-28T00:29:18.425Z,9.12
2017-03-28T00:30:18.945Z,9.13
2017-03-28T00:31:18.842Z,8.10
2017-03-28T00:32:18.015Z,8.05
2017-03-28T00:33:17.192Z,8.50
2017-03-28T00:34:16.757Z,8.60
2017-03-28T00:35:15.927Z,9.00
2017-03-28T00:36:15.879Z,9.28
2017-03-28T00:37:15.085Z,8.43
2017-03-28T00:38:14.330Z,8.47
2017-03-28T00:39:13.514Z,8.95
2017-03-28T00:40:13.117Z,8.53
2017-03-28T00:41:12.444Z,8.68
2017-03-28T00:42:11.678Z,8.25
2017-03-28T00:43:10.842Z,8.77
2017-03-28T00:44:10.048Z,9.18
2017-03-28T00:45:09.308Z,9.08
2017-03-28T00:46:08.940Z,9.42
2017-03-28T00:47:08.219Z,9.07
2017-03-28T00:48:08.198Z,9.70
2017-03-28T00:49:07.284Z,9.20
2017-03-28T00:50:06.487Z,8.77
2017-03-28T00:51:06.754Z,9.72
2017-03-28T00:52:06.436Z,8.63
2017-03-28T00:53:05.655Z,9.45
2017-03-28T00:54:04.899Z,9.78
2017-03-28T00:55:04.193Z,8.45
2017-03-28T00:56:03.400Z,9.85
2017-03-28T00:57:03.636Z,8.97
2017-03-28T00:58:02.828Z,9.50
2017-03-28T00:59:02.017Z,9.07
2017-03-28T01:00:01.190Z,8.85
2017-03-28T01:01:00.352Z,9.72
2017-03-28T01:01:59.552Z,9.40
2017-03-28T01:02:59.135Z,10.13
2017-03-28T01:03:58.320Z,10.42
2017-03-28T01:04:57.507Z,9.73
2017-03-28T01:05:56.842Z,9.92
2017-03-28T01:06:56.170Z,10.02
2017-03-28T01:07:55.318Z,10.37
2017-03-28T01:08:54.962Z,10.22
2017-03-28T01:09:54.182Z,10.93
2017-03-28T01:10:53.359Z,11.43
2017-03-28T01:11:52.592Z,12.40
2017-03-28T01:12:51.755Z,10.42
2017-03-28T01:13:50.979Z,11.17
2017-03-28T01:14:50.496Z,9.68
2017-03-28T01:15:49.707Z,11.25
2017-03-28T01:16:49.026Z,10.93
2017-03-28T01:17:48.453Z,12.85
2017-03-28T01:18:47.742Z,11.65
2017-03-28T01:19:46.953Z,11.15
2017-03-28T01:20:46.546Z,11.50
2017-03-28T01:21:46.591Z,10.83
2017-03-28T01:22:45.744Z,10.60
2017-03-28T01:23:44.931Z,10.97
2017-03-28T01:24:44.164Z,10.18
2017-03-28T01:25:43.272Z,10.28
2017-03-28T01:26:43.004Z,9.85
2017-03-28T01:27:42.189Z,11.33
2017-03-28T01:28:41.367Z,11.40
2017-03-28T01:29:40.593Z,10.75
2017-03-28T01:30:39.741Z,10.05
2017-03-28T01:31:39.698Z,10.15
2017-03-28T01:32:39.348Z,10.77
2017-03-28T01:33:38.911Z,9.72
2017-03-28T01:34:38.310Z,9.93
2017-03-28T01:35:37.470Z,9.97
2017-03-28T01:36:36.668Z,9.87
2017-03-28T01:37:35.827Z,10.22
2017-03-28T01:38:35.395Z,10.25
2017-03-28T01:39:34.610Z,10.17
2017-03-28T01:40:33.933Z,10.32
2017-03-28T01:41:33.111Z,8.88
2017-03-28T01:42:32.328Z,9.37
2017-03-28T01:43:32.273Z,9.47
2017-03-28T01:44:31.847Z,8.35
2017-03-28T01:45:31.037Z,9.20
2017-03-28T01:46:30.225Z,8.97
2017-03-28T01:47:29.477Z,9.42
2017-03-28T01:48:28.643Z,9.63
2017-03-28T01:49:27.819Z,9.80
2017-03-28T01:50:27.366Z,9.05
2017-03-28T01:51:27.283Z,9.18
2017-03-28T01:52:26.501Z,9.50
2017-03-28T01:53:25.675Z,9.70
2017-03-28T01:54:24.821Z,9.83
2017-03-28T01:55:23.982Z,9.33
2017-03-28T01:56:23.532Z,10.60
2017-03-28T01:57:22.698Z,10.08
2017-03-28T01:58:21.886Z,9.87
2017-03-28T01:59:21.062Z,9.72
2017-03-28T02:00:20.278Z,9.95
2017-03-28T02:01:19.498Z,8.95
2017-03-28T02:02:19.024Z,10.47
2017-03-28T02:03:18.217Z,9.28
2017-03-28T02:04:17.484Z,11.52
2017-03-28T02:05:16.646Z,10.72
2017-03-28T02:06:15.927Z,10.32
2017-03-28T02:07:15.059Z,10.22
2017-03-28T02:08:14.561Z,11.20
2017-03-28T02:09:13.696Z,10.80
2017-03-28T02:10:12.881Z,11.33
2017-03-28T02:11:12.069Z,11.23
2017-03-28T02:12:11.230Z,11.57
2017-03-28T02:13:10.518Z,11.37
2017-03-28T02:14:10.843Z,11.37
2017-03-28T02:15:10.116Z,11.50
2017-03-28T02:16:09.293Z,10.72
2017-03-28T02:17:09.040Z,11.22
2017-03-28T02:18:08.228Z,11.75
2017-03-28T02:19:07.387Z,11.85
2017-03-28T02:20:07.202Z,12.00
2017-03-28T02:21:06.423Z,11.45
2017-03-28T02:22:05.606Z,11.00
2017-03-28T02:23:04.800Z,10.15
2017-03-28T02:24:04.044Z,11.52
2017-03-28T02:25:03.271Z,11.20
2017-03-28T02:26:02.847Z,11.83
2017-03-28T02:27:02.119Z,10.88
2017-03-28T02:28:01.255Z,11.03
2017-03-28T02:29:00.441Z,10.95
2017-03-28T02:29:59.621Z,12.17
2017-03-28T02:30:58.778Z,10.38
2017-03-28T02:31:58.265Z,11.17
2017-03-28T02:32:57.449Z,12.57
2017-03-28T02:33:56.617Z,11.95
2017-03-28T02:34:56.567Z,11.60
2017-03-28T02:35:55.778Z,10.92
2017-03-28T02:36:54.939Z,11.45
2017-03-28T02:37:54.405Z,10.05
2017-03-28T02:38:53.587Z,12.48
2017-03-28T02:39:52.801Z,10.38
2017-03-28T02:40:52.018Z,10.88
2017-03-28T02:41:51.206Z,9.88
2017-03-28T02:42:50.478Z,10.18
2017-03-28T02:43:50.054Z,11.90
2017-03-28T02:44:49.291Z,9.75
2017-03-28T02:45:48.426Z,11.20
2017-03-28T02:46:47.682Z,11.03
2017-03-28T02:47:46.878Z,10.40
2017-03-28T02:48:46.046Z,11.40
2017-03-28T02:49:45.576Z,10.35
2017-03-28T02:50:44.799Z,11.62
2017-03-28T02:51:44.004Z,10.20
2017-03-28T02:52:43.195Z,10.65
2017-03-28T02:53:42.365Z,10.60
2017-03-28T02:54:41.604Z,10.88
2017-03-28T02:55:41.139Z,10.97
2017-03-28T02:56:40.314Z,11.13
2017-03-28T02:57:39.528Z,11.50
2017-03-28T02:58:38.727Z,12.07
2017-03-28T02:59:37.908Z,11.92
2017-03-28T03:00:37.114Z,12.40
2017-03-28T03:01:36.669Z,9.90
2017-03-28T03:02:35.962Z,10.60
2017-03-28T03:03:35.138Z,10.83
2017-03-28T03:04:34.352Z,10.73
2017-03-28T03:05:33.556Z,11.02
2017-03-28T03:06:32.761Z,11.42
2017-03-28T03:07:32.312Z,10.47
2017-03-28T03:08:31.670Z,10.90
2017-03-28T03:09:30.832Z,11.27
2017-03-28T03:10:29.988Z,10.50
2017-03-28T03:11:29.168Z,11.15
2017-03-28T03:12:28.397Z,10.58
2017-03-28T03:13:27.924Z,11.93
2017-03-28T03:14:27.880Z,11.27
2017-03-28T03:15:27.062Z,10.65
2017-03-28T03:16:26.275Z,10.35
2017-03-28T03:17:25.655Z,10.85
2017-03-28T03:18:24.817Z,11.58
2017-03-28T03:19:24.365Z,11.15
2017-03-28T03:20:23.763Z,9.80
2017-03-28T03:21:23.019Z,10.20
2017-03-28T03:22:22.195Z,11.35
2017-03-28T03:23:21.453Z,11.03
2017-03-28T03:24:20.624Z,11.07
2017-03-28T03:25:20.126Z,11.02
2017-03-28T03:26:19.298Z,12.67
2017-03-28T03:27:18.537Z,9.93
2017-03-28T03:28:17.745Z,11.58
2017-03-28T03:29:16.987Z,11.18
2017-03-28T03:30:16.945Z,11.13
2017-03-28T03:31:16.435Z,10.87
2017-03-28T03:32:15.644Z,10.15
2017-03-28T03:33:14.904Z,11.33
2017-03-28T03:34:14.064Z,11.07
2017-03-28T03:35:13.255Z,10.92
2017-03-28T03:36:12.556Z,11.22
2017-03-28T03:37:12.141Z,11.17
2017-03-28T03:38:11.261Z,10.35
2017-03-28T03:39:10.433Z,12.05
2017-03-28T03:40:09.588Z,11.27
2017-03-28T03:41:09.374Z,11.02
2017-03-28T03:42:08.506Z,11.15
2017-03-28T03:43:08.062Z,10.37
2017-03-28T03:44:07.330Z,11.00
2017-03-28T03:45:06.517Z,10.48
2017-03-28T03:46:05.748Z,10.33
2017-03-28T03:47:05.018Z,11.10
2017-03-28T03:48:04.268Z,10.93
2017-03-28T03:49:04.661Z,10.08
2017-03-28T03:50:03.885Z,11.97
2017-03-28T03:51:03.072Z,10.05
2017-03-28T03:52:02.257Z,10.20
2017-03-28T03:53:01.425Z,12.43
2017-03-28T03:54:00.654Z,10.52
2017-03-28T03:55:00.200Z,11.97
2017-03-28T03:55:59.396Z,10.27
2017-03-28T03:56:58.620Z,11.22
2017-03-28T03:57:57.837Z,10.28
2017-03-28T03:58:56.997Z,11.08
2017-03-28T03:59:56.338Z,10.48
2017-03-28T04:00:55.968Z,10.30
2017-03-28T04:01:55.148Z,12.00
2017-03-28T04:02:54.420Z,11.25
2017-03-28T04:03:53.619Z,12.03
2017-03-28T04:04:52.790Z,10.82
2017-03-28T04:05:51.945Z,11.20
2017-03-28T04:06:51.496Z,10.05
2017-03-28T04:07:50.655Z,10.32
2017-03-28T04:08:49.881Z,11.48
2017-03-28T04:09:49.110Z,10.12
2017-03-28T04:10:48.313Z,11.00
2017-03-28T04:11:48.235Z,11.48
2017-03-28T04:12:47.743Z,11.70
2017-03-28T04:13:46.965Z,11.75
2017-03-28T04:14:46.184Z,11.68
2017-03-28T04:15:45.392Z,10.48
2017-03-28T04:16:44.589Z,10.35
2017-03-28T04:17:43.805Z,10.22
2017-03-28T04:18:43.395Z,11.95
2017-03-28T04:19:42.960Z,9.93
2017-03-28T04:20:42.177Z,10.55
2017-03-28T04:21:41.376Z,11.45
2017-03-28T04:22:40.524Z,11.62
2017-03-28T04:23:39.778Z,10.57
2017-03-28T04:24:39.287Z,10.65
2017-03-28T04:25:38.471Z,12.67
2017-03-28T04:26:37.711Z,12.03
2017-03-28T04:27:37.727Z,12.25
2017-03-28T04:28:36.955Z,11.78
2017-03-28T04:29:36.103Z,11.28
2017-03-28T04:30:35.681Z,11.55
2017-03-28T04:31:34.881Z,10.98
2017-03-28T04:32:34.139Z,11.02
2017-03-28T04:33:34.117Z,10.73
2017-03-28T04:34:33.259Z,11.30
2017-03-28T04:35:32.437Z,10.63
2017-03-28T04:36:32.011Z,12.15
2017-03-28T04:37:31.895Z,10.72
2017-03-28T04:38:31.080Z,10.78
2017-03-28T04:39:30.261Z,11.37
2017-03-28T04:40:29.422Z,11.57
2017-03-28T04:41:28.594Z,12.33
2017-03-28T04:42:28.087Z,11.18
2017-03-28T04:43:27.399Z,10.80
2017-03-28T04:44:26.707Z,11.70
2017-03-28T04:45:25.924Z,11.68
2017-03-28T04:46:25.808Z,13.28
2017-03-28T04:47:25.051Z,11.35
2017-03-28T04:48:24.621Z,12.17
2017-03-28T04:49:23.852Z,11.15
2017-03-28T04:50:23.032Z,11.70
2017-03-28T04:51:22.335Z,11.95
2017-03-28T04:52:21.533Z,11.90
2017-03-28T04:53:21.360Z,11.10
2017-03-28T04:54:21.125Z,10.47
2017-03-28T04:55:20.339Z,11.50
2017-03-28T04:56:19.579Z,11.73
2017-03-28T04:57:18.767Z,10.85
2017-03-28T04:58:17.957Z,11.05
2017-03-28T04:59:17.165Z,11.18
2017-03-28T05:00:16.697Z,11.78
2017-03-28T05:01:16.038Z,11.50
2017-03-28T05:02:15.203Z,12.52
2017-03-28T05:03:14.347Z,10.93
2017-03-28T05:04:13.512Z,12.88
2017-03-28T05:05:12.723Z,11.80
2017-03-28T05:06:12.259Z,11.67
2017-03-28T05:07:11.520Z,11.25
2017-03-28T05:08:10.737Z,11.08
2017-03-28T05:09:10.084Z,11.23
2017-03-28T05:10:09.231Z,12.37
2017-03-28T05:11:08.687Z,10.87
2017-03-28T05:12:09.044Z,11.75
2017-03-28T05:13:08.235Z,12.42
2017-03-28T05:14:07.388Z,11.27
2017-03-28T05:15:06.553Z,11.23
2017-03-28T05:16:05.722Z,10.90
2017-03-28T05:17:05.031Z,11.40
2017-03-28T05:18:04.652Z,11.77
2017-03-28T05:19:03.831Z,12.33
2017-03-28T05:20:03.028Z,12.92
2017-03-28T05:21:02.270Z,12.88
2017-03-28T05:22:01.583Z,12.75
2017-03-28T05:23:00.844Z,11.85
2017-03-28T05:24:00.590Z,12.38
2017-03-28T05:24:59.762Z,13.13
2017-03-28T05:25:59.058Z,13.00
2017-03-28T05:26:58.230Z,12.82
2017-03-28T05:27:57.412Z,12.07
2017-03-28T05:28:56.690Z,13.10
2017-03-28T05:29:57.369Z,13.27
2017-03-28T05:30:57.549Z,11.87
2017-03-28T05:31:56.739Z,13.03
2017-03-28T05:32:56.235Z,11.57
2017-03-28T05:33:55.412Z,12.72
2017-03-28T05:34:55.179Z,12.02
2017-03-28T05:35:54.852Z,12.98
2017-03-28T05:36:54.027Z,13.72
2017-03-28T05:37:53.157Z,14.25
2017-03-28T05:38:52.504Z,14.30
2017-03-28T05:39:52.452Z,13.67
2017-03-28T05:40:51.668Z,14.70
2017-03-28T05:41:51.094Z,13.12
2017-03-28T05:42:50.284Z,13.87
2017-03-28T05:43:49.562Z,12.72
2017-03-28T05:44:48.721Z,12.33
2017-03-28T05:45:47.926Z,12.08
2017-03-28T05:46:47.149Z,10.75
2017-03-28T05:47:46.817Z,11.78
2017-03-28T05:48:46.060Z,12.38
2017-03-28T05:49:45.299Z,12.52
2017-03-28T05:50:44.528Z,11.98
2017-03-28T05:51:44.364Z,12.43
2017-03-28T05:52:43.546Z,12.00
2017-03-28T05:53:43.069Z,12.50
2017-03-28T05:54:43.307Z,12.42
2017-03-28T05:55:42.619Z,11.15
2017-03-28T05:56:41.772Z,12.10
2017-03-28T05:57:42.390Z,11.00
2017-03-28T05:58:41.784Z,11.78
2017-03-28T05:59:41.502Z,11.62
2017-03-28T06:00:41.408Z,11.27
2017-03-28T06:01:40.610Z,10.28
2017-03-28T06:02:39.872Z,11.83
2017-03-28T06:03:39.446Z,11.20
2017-03-28T06:04:38.624Z,11.60
2017-03-28T06:05:38.236Z,9.62
2017-03-28T06:06:37.582Z,11.05
2017-03-28T06:07:36.775Z,11.75
2017-03-28T06:08:36.012Z,9.82
2017-03-28T06:09:35.349Z,10.23
2017-03-28T06:10:34.737Z,11.28
2017-03-28T06:11:34.372Z,11.15
2017-03-28T06:12:33.681Z,10.42
2017-03-28T06:13:33.233Z,10.33
2017-03-28T06:14:32.413Z,9.50
2017-03-28T06:15:31.654Z,8.67
2017-03-28T06:16:30.914Z,10.82
2017-03-28T06:17:30.476Z,11.53
2017-03-28T06:18:29.713Z,11.67
2017-03-28T06:19:28.879Z,9.58
2017-03-28T06:20:28.365Z,10.18
2017-03-28T06:21:27.841Z,10.47
2017-03-28T06:22:27.017Z,10.52
2017-03-28T06:23:26.667Z,11.17
2017-03-28T06:24:25.932Z,11.37
2017-03-28T06:25:25.118Z,11.22
2017-03-28T06:26:25.140Z,9.53
2017-03-28T06:27:24.393Z,10.12
2017-03-28T06:28:23.894Z,10.87
2017-03-28T06:29:23.436Z,9.93
2017-03-28T06:30:22.701Z,9.95
2017-03-28T06:31:21.827Z,10.33
2017-03-28T06:32:21.765Z,10.62
2017-03-28T06:33:20.928Z,10.33
2017-03-28T06:34:20.143Z,11.22
2017-03-28T06:35:19.842Z,10.67
2017-03-28T06:36:19.190Z,10.62
2017-03-28T06:37:18.460Z,10.05
2017-03-28T06:38:17.629Z,10.58
2017-03-28T06:39:17.480Z,11.38
2017-03-28T06:40:16.727Z,10.98
2017-03-28T06:41:16.815Z,9.43
2017-03-28T06:42:17.165Z,10.33
2017-03-28T06:43:16.511Z,10.55
2017-03-28T06:44:15.737Z,8.68
2017-03-28T06:45:15.015Z,10.95
2017-03-28T06:46:14.333Z,9.33
2017-03-28T06:47:13.767Z,8.15
2017-03-28T06:48:12.915Z,8.63
2017-03-28T06:49:12.184Z,8.82
2017-03-28T06:50:11.363Z,8.57
2017-03-28T06:51:10.860Z,10.40
2017-03-28T06:52:10.239Z,9.23
2017-03-28T06:53:09.412Z,9.35
2017-03-28T06:54:08.623Z,10.52
2017-03-28T06:55:08.006Z,9.22
2017-03-28T06:56:07.649Z,8.70
2017-03-28T06:57:07.217Z,11.02
2017-03-28T06:58:06.397Z,9.03
2017-03-28T06:59:05.713Z,11.28
2017-03-28T07:00:05.045Z,8.92
2017-03-28T07:01:04.508Z,8.77
2017-03-28T07:02:03.751Z,8.97
2017-03-28T07:03:03.331Z,9.63
2017-03-28T07:04:02.582Z,8.62
2017-03-28T07:05:01.789Z,8.63
2017-03-28T07:06:01.095Z,9.53
2017-03-28T07:07:00.293Z,8.93
2017-03-28T07:07:59.515Z,7.57
2017-03-28T07:08:59.218Z,8.08
2017-03-28T07:09:58.499Z,8.42
2017-03-28T07:10:57.899Z,8.25
2017-03-28T07:11:57.262Z,8.75
2017-03-28T07:12:56.614Z,8.95
2017-03-28T07:13:56.073Z,8.73
2017-03-28T07:14:55.857Z,7.97
2017-03-28T07:15:55.311Z,8.02
2017-03-28T07:16:54.850Z,9.37
2017-03-28T07:17:54.999Z,8.80
2017-03-28T07:18:54.382Z,7.45
2017-03-28T07:19:53.816Z,7.33
2017-03-28T07:20:53.705Z,9.02
2017-03-28T07:21:53.118Z,9.60
2017-03-28T07:22:52.561Z,8.43
2017-03-28T07:23:52.025Z,9.98
2017-03-28T07:24:51.517Z,8.68
2017-03-28T07:25:50.962Z,9.22
2017-03-28T07:26:50.650Z,9.37
2017-03-28T07:27:50.823Z,9.13
2017-03-28T07:28:50.161Z,8.87
2017-03-28T07:29:49.629Z,7.77
2017-03-28T07:30:49.050Z,8.93
2017-03-28T07:31:48.544Z,9.13
2017-03-28T07:32:48.418Z,7.92
2017-03-28T07:33:48.649Z,9.13
2017-03-28T07:34:47.967Z,9.00
2017-03-28T07:35:47.422Z,8.97
2017-03-28T07:36:46.874Z,8.77
2017-03-28T07:37:46.181Z,8.65
2017-03-28T07:38:45.929Z,9.70
2017-03-28T07:39:45.384Z,9.25
2017-03-28T07:40:44.838Z,8.40
2017-03-28T07:41:44.941Z,8.48
2017-03-28T07:42:44.406Z,9.43
2017-03-28T07:43:43.869Z,8.57
2017-03-28T07:44:43.652Z,9.37
2017-03-28T07:45:43.073Z,8.95
2017-03-28T07:46:42.613Z,9.88
2017-03-28T07:47:42.014Z,9.63
2017-03-28T07:48:41.423Z,9.07
2017-03-28T07:49:40.985Z,9.32
2017-03-28T07:50:41.703Z,9.48
2017-03-28T07:51:41.248Z,8.37
2017-03-28T07:52:41.667Z,9.42
2017-03-28T07:53:41.126Z,8.93
2017-03-28T07:54:40.667Z,8.52
2017-03-28T07:55:40.265Z,9.75
2017-03-28T07:56:40.053Z,8.95
2017-03-28T07:57:40.086Z,8.95
2017-03-28T07:58:39.471Z,9.30
2017-03-28T07:59:38.924Z,9.28
2017-03-28T08:00:38.353Z,9.07
2017-03-28T08:01:37.752Z,10.18
2017-03-28T08:02:37.125Z,10.10
2017-03-28T08:03:36.622Z,9.68
2017-03-28T08:04:36.152Z,10.00
2017-03-28T08:05:35.640Z,9.72
2017-03-28T08:06:35.131Z,9.62
2017-03-28T08:07:34.696Z,9.15
2017-03-28T08:08:34.180Z,9.27
2017-03-28T08:09:33.553Z,10.40
2017-03-28T08:10:32.909Z,10.77
2017-03-28T08:11:32.423Z,9.78
2017-03-28T08:12:31.894Z,10.03
2017-03-28T08:13:31.646Z,10.17
2017-03-28T08:14:31.871Z,9.90
2017-03-28T08:15:31.353Z,9.52
2017-03-28T08:16:31.482Z,9.68
2017-03-28T08:17:31.004Z,9.90
2017-03-28T08:18:30.520Z,10.88
2017-03-28T08:19:30.333Z,9.85
2017-03-28T08:20:29.884Z,10.32
2017-03-28T08:21:29.376Z,9.35
2017-03-28T08:22:28.761Z,10.93
2017-03-28T08:23:28.122Z,10.82
2017-03-28T08:24:27.517Z,9.75
2017-03-28T08:25:27.178Z,9.93
2017-03-28T08:26:26.589Z,10.35
2017-03-28T08:27:25.890Z,10.85
2017-03-28T08:28:25.202Z,10.03
2017-03-28T08:29:24.600Z,10.70
2017-03-28T08:30:24.014Z,11.00
2017-03-28T08:31:23.382Z,12.70
2017-03-28T08:32:22.834Z,10.15
2017-03-28T08:33:22.275Z,11.57
2017-03-28T08:34:21.660Z,9.63
2017-03-28T08:35:21.443Z,10.67
2017-03-28T08:36:21.195Z,11.50
2017-03-28T08:37:20.636Z,11.25
2017-03-28T08:38:20.870Z,11.03
2017-03-28T08:39:20.291Z,11.60
2017-03-28T08:40:20.048Z,10.22
2017-03-28T08:41:19.490Z,11.98
2017-03-28T08:42:19.175Z,11.30
2017-03-28T08:43:18.603Z,12.22
2017-03-28T08:44:18.028Z,11.02
2017-03-28T08:45:17.567Z,10.83
2017-03-28T08:46:17.040Z,11.25
2017-03-28T08:47:16.536Z,11.50
2017-03-28T08:48:16.479Z,11.50
2017-03-28T08:49:15.964Z,11.58
2017-03-28T08:50:16.269Z,11.27
2017-03-28T08:51:15.661Z,12.42
2017-03-28T08:52:15.229Z,10.95
2017-03-28T08:53:14.758Z,11.10
2017-03-28T08:54:14.634Z,10.83
2017-03-28T08:55:14.141Z,11.00
2017-03-28T08:56:13.639Z,11.25
2017-03-28T08:57:13.155Z,11.60
2017-03-28T08:58:12.597Z,11.27
2017-03-28T08:59:11.980Z,11.50
2017-03-28T09:00:12.122Z,11.73
2017-03-28T09:01:11.473Z,12.17
2017-03-28T09:02:11.590Z,12.17
2017-03-28T09:03:11.758Z,10.55
2017-03-28T09:04:11.078Z,11.12
2017-03-28T09:05:11.742Z,10.97
2017-03-28T09:06:11.321Z,10.93
2017-03-28T09:07:10.723Z,11.73
2017-03-28T09:08:10.074Z,11.48
2017-03-28T09:09:09.342Z,11.20
2017-03-28T09:10:08.732Z,11.62
2017-03-28T09:11:08.160Z,13.02
2017-03-28T09:12:07.590Z,12.13
2017-03-28T09:13:06.860Z,11.17
2017-03-28T09:14:06.096Z,11.13
2017-03-28T09:15:05.502Z,11.83
2017-03-28T09:16:05.139Z,11.22
2017-03-28T09:17:04.616Z,11.13
2017-03-28T09:18:03.965Z,10.75
2017-03-28T09:19:03.326Z,12.02
2017-03-28T09:20:02.709Z,10.83
2017-03-28T09:21:02.000Z,10.97
2017-03-28T09:22:01.771Z,10.53
2017-03-28T09:23:01.129Z,10.00
2017-03-28T09:24:00.794Z,11.57
2017-03-28T09:25:00.245Z,11.62
2017-03-28T09:25:59.645Z,11.40
2017-03-28T09:26:58.993Z,12.18
2017-03-28T09:27:58.715Z,11.38
2017-03-28T09:28:58.074Z,12.98
2017-03-28T09:29:57.411Z,11.85
2017-03-28T09:30:56.768Z,12.18
2017-03-28T09:31:56.081Z,13.28
2017-03-28T09:32:55.426Z,12.10
2017-03-28T09:33:55.142Z,11.33
2017-03-28T09:34:54.611Z,12.57
2017-03-28T09:35:54.012Z,12.90
2017-03-28T09:36:53.332Z,12.23
2017-03-28T09:37:52.658Z,13.00
2017-03-28T09:38:52.067Z,11.83
2017-03-28T09:39:51.647Z,11.65
2017-03-28T09:40:51.312Z,10.90
2017-03-28T09:41:50.891Z,12.95
2017-03-28T09:42:50.278Z,11.30
2017-03-28T09:43:49.491Z,11.62
2017-03-28T09:44:48.606Z,11.97
2017-03-28T09:45:48.212Z,12.03
2017-03-28T09:46:47.491Z,11.20
2017-03-28T09:47:46.815Z,13.20
2017-03-28T09:48:46.096Z,12.18
2017-03-28T09:49:45.475Z,11.68
2017-03-28T09:50:44.916Z,12.30
2017-03-28T09:51:44.613Z,12.02
2017-03-28T09:52:43.956Z,12.00
2017-03-28T09:53:43.382Z,12.92
2017-03-28T09:54:43.430Z,12.42
2017-03-28T09:55:42.754Z,13.17
2017-03-28T09:56:42.096Z,12.37
2017-03-28T09:57:41.657Z,12.53
2017-03-28T09:58:41.228Z,12.10
2017-03-28T09:59:40.424Z,13.28
2017-03-28T10:00:39.670Z,11.90
2017-03-28T10:01:38.895Z,13.88
2017-03-28T10:02:38.109Z,12.17
2017-03-28T10:03:37.703Z,11.37
2017-03-28T10:04:36.948Z,11.63
2017-03-28T10:05:36.252Z,12.88
2017-03-28T10:06:35.520Z,11.70
2017-03-28T10:07:34.764Z,12.18
2017-03-28T10:08:33.917Z,11.73
2017-03-28T10:09:33.575Z,12.02
2017-03-28T10:10:32.756Z,11.80
2017-03-28T10:11:31.990Z,11.58
2017-03-28T10:12:31.579Z,11.12
2017-03-28T10:13:30.976Z,11.03
2017-03-28T10:14:30.303Z,11.73
2017-03-28T10:15:30.006Z,12.07
2017-03-28T10:16:29.192Z,11.02
2017-03-28T10:17:28.400Z,13.50
2017-03-28T10:18:27.586Z,12.73
2017-03-28T10:19:26.840Z,11.90
2017-03-28T10:20:27.687Z,12.18
2017-03-28T10:21:27.311Z,13.27
2017-03-28T10:22:26.681Z,11.40
2017-03-28T10:23:25.970Z,10.72
2017-03-28T10:24:25.324Z,13.40
2017-03-28T10:25:25.417Z,13.47
2017-03-28T10:26:24.743Z,12.60
2017-03-28T10:27:24.468Z,13.55
2017-03-28T10:28:23.777Z,11.78
2017-03-28T10:29:23.123Z,13.72
2017-03-28T10:30:22.444Z,12.77
2017-03-28T10:31:21.813Z,13.27
2017-03-28T10:32:22.027Z,11.98
2017-03-28T10:33:21.623Z,11.85
2017-03-28T10:34:21.016Z,12.40
2017-03-28T10:35:20.364Z,12.07
2017-03-28T10:36:19.671Z,14.28
2017-03-28T10:37:19.728Z,13.03
2017-03-28T10:38:19.203Z,12.63
2017-03-28T10:39:18.551Z,13.33
2017-03-28T10:40:17.906Z,12.18
2017-03-28T10:41:17.279Z,11.45
2017-03-28T10:42:16.667Z,12.00
2017-03-28T10:43:16.054Z,12.07
2017-03-28T10:44:15.962Z,12.52
2017-03-28T10:45:15.380Z,12.57
2017-03-28T10:46:14.676Z,11.27
2017-03-28T10:47:14.024Z,12.60
2017-03-28T10:48:13.329Z,11.57
2017-03-28T10:49:12.711Z,11.27
2017-03-28T10:50:12.322Z,11.13
2017-03-28T10:51:11.751Z,12.32
2017-03-28T10:52:11.026Z,12.10
2017-03-28T10:53:10.339Z,11.35
2017-03-28T10:54:09.661Z,11.65
2017-03-28T10:55:08.912Z,10.95
2017-03-28T10:56:08.586Z,11.05
2017-03-28T10:57:08.068Z,12.28
2017-03-28T10:58:07.380Z,12.37
2017-03-28T10:59:06.752Z,11.32
2017-03-28T11:00:06.214Z,10.67
2017-03-28T11:01:05.540Z,11.55
2017-03-28T11:02:05.228Z,9.92
2017-03-28T11:03:05.411Z,11.60
2017-03-28T11:04:04.845Z,11.48
2017-03-28T11:05:04.169Z,12.28
2017-03-28T11:06:03.511Z,10.48
2017-03-28T11:07:02.782Z,10.22
2017-03-28T11:08:02.497Z,9.98
2017-03-28T11:09:01.822Z,11.02
2017-03-28T11:10:01.181Z,9.92
2017-03-28T11:11:01.129Z,10.67
2017-03-28T11:12:00.488Z,9.90
2017-03-28T11:12:59.926Z,11.15
2017-03-28T11:13:59.653Z,12.17
2017-03-28T11:14:59.151Z,11.80
2017-03-28T11:15:59.291Z,11.50
2017-03-28T11:16:58.647Z,9.65
2017-03-28T11:17:58.704Z,10.78
2017-03-28T11:18:58.135Z,10.85
2017-03-28T11:19:58.803Z,10.88
2017-03-28T11:20:58.865Z,10.25
2017-03-28T11:21:58.010Z,12.40
2017-03-28T11:22:57.290Z,11.82
2017-03-28T11:23:56.750Z,10.83
2017-03-28T11:24:56.097Z,11.12
2017-03-28T11:25:55.778Z,12.52
2017-03-28T11:26:55.147Z,11.87
2017-03-28T11:27:54.450Z,11.95
2017-03-28T11:28:53.754Z,12.00
2017-03-28T11:29:53.003Z,10.65
2017-03-28T11:30:52.224Z,12.40
2017-03-28T11:31:51.952Z,11.87
2017-03-28T11:32:51.165Z,11.77
2017-03-28T11:33:50.476Z,11.28
2017-03-28T11:34:50.035Z,11.82
2017-03-28T11:35:49.264Z,12.77
2017-03-28T11:36:48.489Z,11.92
2017-03-28T11:37:48.151Z,11.85
2017-03-28T11:38:47.426Z,11.70
2017-03-28T11:39:46.832Z,11.48
2017-03-28T11:40:46.283Z,12.00
2017-03-28T11:41:45.629Z,10.33
2017-03-28T11:42:44.871Z,11.73
2017-03-28T11:43:44.718Z,11.45
2017-03-28T11:44:44.151Z,12.00
2017-03-28T11:45:43.685Z,12.27
2017-03-28T11:46:43.076Z,12.45
2017-03-28T11:47:42.376Z,12.03
2017-03-28T11:48:41.736Z,11.68
2017-03-28T11:49:42.090Z,11.47
2017-03-28T11:50:42.118Z,11.53
2017-03-28T11:51:41.531Z,10.92
2017-03-28T11:52:41.048Z,11.57
2017-03-28T11:53:40.307Z,12.18
2017-03-28T11:54:39.613Z,12.05
2017-03-28T11:55:39.493Z,10.50
2017-03-28T11:56:38.841Z,11.13
2017-03-28T11:57:38.221Z,11.53
2017-03-28T11:58:38.357Z,10.37
2017-03-28T11:59:37.740Z,10.43
2017-03-28T12:00:37.139Z,11.13
2017-03-28T12:01:36.823Z,10.48
2017-03-28T12:02:36.278Z,9.98
2017-03-28T12:03:35.650Z,9.38
2017-03-28T12:04:35.035Z,11.08
2017-03-28T12:05:34.575Z,11.45
2017-03-28T12:06:34.170Z,10.53
2017-03-28T12:07:34.724Z,10.73
2017-03-28T12:08:34.176Z,10.38
2017-03-28T12:09:33.490Z,10.30
2017-03-28T12:10:32.885Z,10.20
2017-03-28T12:11:33.717Z,11.05
2017-03-28T12:12:33.116Z,10.03
2017-03-28T12:13:38.239Z,9.75
2017-03-28T12:14:44.593Z,10.18
2017-03-28T12:15:51.969Z,9.83
2017-03-28T12:16:51.455Z,9.50
2017-03-28T12:17:50.928Z,9.48
2017-03-28T12:19:00.634Z,9.60
2017-03-28T12:20:11.739Z,9.33
2017-03-28T12:21:23.303Z,9.47
2017-03-28T12:22:28.706Z,9.13
2017-03-28T12:23:34.155Z,10.47
2017-03-28T12:24:34.023Z,8.65
2017-03-28T12:25:33.449Z,9.85
2017-03-28T12:26:32.984Z,9.08
2017-03-28T12:27:32.426Z,9.45
2017-03-28T12:28:31.798Z,9.58
2017-03-28T12:29:31.144Z,8.98
2017-03-28T12:30:30.989Z,10.38
2017-03-28T12:31:30.421Z,8.77
2017-03-28T12:32:29.790Z,9.60
2017-03-28T12:33:29.134Z,9.63
2017-03-28T12:34:38.004Z,10.60
2017-03-28T12:35:37.630Z,9.40
2017-03-28T12:36:37.051Z,10.83
2017-03-28T12:37:36.944Z,9.25
2017-03-28T12:38:36.277Z,10.20
2017-03-28T12:39:35.689Z,10.27
2017-03-28T12:40:36.007Z,10.58
2017-03-28T12:41:35.675Z,10.33
2017-03-28T12:42:35.086Z,11.10
2017-03-28T12:43:34.330Z,10.28
2017-03-28T12:44:33.565Z,9.85
2017-03-28T12:45:32.908Z,9.62
2017-03-28T12:46:32.316Z,9.35
2017-03-28T12:47:31.981Z,9.62
2017-03-28T12:48:31.264Z,12.75
2017-03-28T12:49:30.573Z,10.53
2017-03-28T12:50:29.842Z,11.03
2017-03-28T12:51:29.104Z,10.83
2017-03-28T12:52:28.705Z,9.43
2017-03-28T12:53:28.352Z,11.72